Terminal Aerodrome Forecast
Issued by NWS

Home | Current Version | Previous Version | Text Only | Print | Product List | Glossary On
Versions: 1 2 3 4 5 6 7 8 9 10 11 12 13 14 15 16 17 18 19 20 21 22 23
000
FTUS44 KFWD 300904 AAA
TAFGKY
TAF AMD
KGKY 300904Z 3009/0106 VRB05KT P6SM VCTS BKN035CB
      TEMPO 3009/3010 05015G25KT 5SM -TSRA
     FM301100 21009KT P6SM SCT060
     FM010200 17008KT P6SM FEW060 SCT250=

USA.gov is the U.S. government's official web portal to all federal, state and local government web resources and services.